createdAt,value
2019-05-15T00:01:42.076Z,3.70
2019-05-15T00:04:49.283Z,3.70
2019-05-15T00:07:52.682Z,3.70
2019-05-15T00:20:29.484Z,3.50
2019-05-15T00:23:50.178Z,3.60
2019-05-15T00:32:28.283Z,3.50
2019-05-15T00:43:58.446Z,3.60
2019-05-15T00:47:02.743Z,3.50
2019-05-15T00:50:08.918Z,3.50
2019-05-15T00:53:13.380Z,3.40
2019-05-15T00:56:19.483Z,3.30
2019-05-15T00:59:29.361Z,3.20
2019-05-15T01:02:30.449Z,3.20
2019-05-15T01:05:33.765Z,3.00
2019-05-15T01:08:39.073Z,3.00
2019-05-15T01:11:43.109Z,2.90
2019-05-15T01:14:45.994Z,2.90
2019-05-15T01:17:50.833Z,2.90
2019-05-15T01:20:53.842Z,3.00
2019-05-15T01:23:58.944Z,2.90
2019-05-15T01:27:02.619Z,2.90
2019-05-15T01:30:08.976Z,2.80
2019-05-15T01:33:14.434Z,2.80
2019-05-15T01:36:19.467Z,2.80
2019-05-15T01:39:22.368Z,2.80
2019-05-15T01:42:27.863Z,2.80
2019-05-15T01:45:33.318Z,2.70
2019-05-15T01:48:38.799Z,2.50
2019-05-15T01:51:43.287Z,2.40
2019-05-15T01:54:48.910Z,2.50
2019-05-15T01:57:52.377Z,2.50
2019-05-15T02:00:58.958Z,2.50
2019-05-15T02:04:02.407Z,2.40
2019-05-15T02:07:08.393Z,2.40
2019-05-15T02:10:14.225Z,2.30
2019-05-15T02:13:18.771Z,2.20
2019-05-15T02:16:23.548Z,2.20
2019-05-15T02:19:28.583Z,2.20
2019-05-15T02:22:33.092Z,2.20
2019-05-15T02:25:38.739Z,2.10
2019-05-15T02:28:44.688Z,2.10
2019-05-15T02:31:50.373Z,2.00
2019-05-15T02:34:53.305Z,1.90
2019-05-15T02:37:59.557Z,1.90
2019-05-15T02:41:02.848Z,1.80
2019-05-15T02:44:10.654Z,1.70
2019-05-15T02:47:13.018Z,1.70
2019-05-15T02:50:20.363Z,1.60
2019-05-15T02:53:24.470Z,1.40
2019-05-15T02:56:30.147Z,1.10
2019-05-15T02:59:39.584Z,0.90
2019-05-15T03:02:41.958Z,0.70
2019-05-15T03:05:49.641Z,0.50
2019-05-15T03:08:54.837Z,0.40
2019-05-15T03:11:58.698Z,0.30
2019-05-15T03:15:03.615Z,0.20
2019-05-15T03:18:09.671Z,0.10
2019-05-15T03:21:12.876Z,0.00
2019-05-15T03:24:19.450Z,-0.10
2019-05-15T03:27:23.830Z,-0.10
2019-05-15T03:30:31.890Z,-0.20
2019-05-15T03:33:36.329Z,-0.20
2019-05-15T03:36:44.441Z,0.00
2019-05-15T03:39:46.998Z,0.00
2019-05-15T03:42:49.612Z,0.10
2019-05-15T03:45:53.102Z,0.20
2019-05-15T03:48:56.334Z,0.30
2019-05-15T03:52:00.208Z,0.40
2019-05-15T03:55:05.533Z,0.50
2019-05-15T03:58:10.688Z,0.60
2019-05-15T04:01:30.018Z,0.60
2019-05-15T04:04:20.904Z,0.50
2019-05-15T04:07:25.292Z,0.50
2019-05-15T04:10:28.968Z,0.40
2019-05-15T04:13:32.249Z,0.40
2019-05-15T04:16:38.756Z,0.60
2019-05-15T04:19:40.944Z,1.30
2019-05-15T04:22:44.066Z,2.00
2019-05-15T04:25:51.127Z,2.40
2019-05-15T04:29:00.138Z,2.70
2019-05-15T04:32:05.932Z,3.10
2019-05-15T04:35:09.464Z,3.30
2019-05-15T04:38:19.605Z,3.60
2019-05-15T04:41:21.638Z,3.70
2019-05-15T04:44:24.761Z,3.90
2019-05-15T04:47:30.287Z,4.00
2019-05-15T04:50:33.066Z,4.10
2019-05-15T04:53:39.487Z,4.10
2019-05-15T04:56:42.376Z,4.30
2019-05-15T04:59:45.444Z,4.40
2019-05-15T05:02:49.700Z,4.60
2019-05-15T05:05:53.244Z,4.80
2019-05-15T05:08:59.729Z,5.00
2019-05-15T05:12:04.541Z,5.20
2019-05-15T05:15:08.574Z,5.50
2019-05-15T05:18:13.844Z,5.80
2019-05-15T05:21:18.408Z,6.00
2019-05-15T05:24:23.761Z,6.30
2019-05-15T05:27:28.843Z,6.50
2019-05-15T05:30:34.756Z,6.70
2019-05-15T05:33:39.477Z,7.00
2019-05-15T05:36:43.972Z,7.20
2019-05-15T05:39:48.776Z,7.50
2019-05-15T05:42:54.534Z,7.70
2019-05-15T05:45:58.617Z,7.70
2019-05-15T05:49:02.940Z,7.80
2019-05-15T05:52:08.394Z,7.90
2019-05-15T05:55:12.220Z,8.20
2019-05-15T05:58:19.618Z,8.40
2019-05-15T06:01:22.911Z,8.50
2019-05-15T06:04:27.980Z,8.60
2019-05-15T06:07:35.342Z,8.70
2019-05-15T06:10:38.653Z,8.90
2019-05-15T06:13:43.678Z,9.00
2019-05-15T06:16:49.352Z,9.30
2019-05-15T06:19:55.257Z,9.70
2019-05-15T06:22:59.108Z,10.00
2019-05-15T06:26:03.113Z,10.50
2019-05-15T06:29:08.849Z,10.60
2019-05-15T06:32:13.591Z,10.70
2019-05-15T06:35:19.364Z,10.80
2019-05-15T06:38:24.109Z,10.90
2019-05-15T06:41:28.661Z,10.90
2019-05-15T06:44:33.725Z,10.80
2019-05-15T06:47:39.539Z,10.80
2019-05-15T06:50:45.648Z,11.00
2019-05-15T06:53:51.910Z,10.90
2019-05-15T06:56:54.662Z,10.80
2019-05-15T06:59:57.995Z,10.70
2019-05-15T07:03:16.773Z,10.70
2019-05-15T07:06:09.465Z,10.80
2019-05-15T07:09:13.650Z,11.00
2019-05-15T07:12:19.403Z,11.00
2019-05-15T07:15:27.857Z,11.00
2019-05-15T07:18:31.904Z,11.20
2019-05-15T07:21:38.737Z,11.30
2019-05-15T07:24:44.672Z,11.70
2019-05-15T07:27:59.743Z,12.00
2019-05-15T07:31:03.789Z,12.50
2019-05-15T07:34:15.369Z,12.20
2019-05-15T07:37:20.409Z,12.20
2019-05-15T07:40:28.870Z,12.30
2019-05-15T07:43:31.036Z,12.60
2019-05-15T07:46:35.169Z,12.70
2019-05-15T07:50:38.921Z,12.90
2019-05-15T07:53:45.085Z,12.90
2019-05-15T07:56:49.858Z,12.90
2019-05-15T07:59:54.668Z,13.00
2019-05-15T08:02:58.763Z,12.80
2019-05-15T08:06:03.988Z,12.90
2019-05-15T08:09:08.605Z,13.00
2019-05-15T08:12:12.021Z,13.00
2019-05-15T08:15:18.335Z,13.00
2019-05-15T08:18:22.912Z,13.40
2019-05-15T08:21:29.073Z,13.80
2019-05-15T08:24:33.239Z,14.10
2019-05-15T08:27:38.275Z,14.10
2019-05-15T08:30:44.697Z,13.70
2019-05-15T08:33:50.336Z,13.90
2019-05-15T08:36:53.625Z,14.00
2019-05-15T08:39:59.411Z,14.00
2019-05-15T08:43:04.357Z,14.10
2019-05-15T08:46:08.582Z,14.40
2019-05-15T08:49:12.947Z,14.60
2019-05-15T08:52:19.085Z,15.00
2019-05-15T08:55:23.033Z,15.30
2019-05-15T08:58:25.785Z,15.60
2019-05-15T09:01:28.899Z,15.80
2019-05-15T09:04:35.040Z,15.30
2019-05-15T09:07:38.496Z,15.50
2019-05-15T09:10:43.272Z,15.80
2019-05-15T09:13:45.999Z,15.80
2019-05-15T09:16:49.107Z,15.50
2019-05-15T09:19:56.123Z,15.30
2019-05-15T09:23:00.688Z,15.20
2019-05-15T09:26:03.657Z,15.20
2019-05-15T09:29:09.546Z,15.20
2019-05-15T09:32:14.110Z,15.10
2019-05-15T09:35:22.322Z,14.60
2019-05-15T09:38:28.879Z,14.70
2019-05-15T09:41:33.037Z,14.50
2019-05-15T09:44:39.180Z,14.30
2019-05-15T09:47:43.098Z,14.40
2019-05-15T09:50:49.371Z,14.20
2019-05-15T09:53:53.391Z,14.50
2019-05-15T09:56:58.625Z,15.00
2019-05-15T10:00:05.040Z,15.00
2019-05-15T10:03:09.682Z,14.80
2019-05-15T10:06:13.709Z,14.80
2019-05-15T10:09:19.682Z,15.10
2019-05-15T10:12:25.458Z,15.40
2019-05-15T10:15:29.505Z,15.70
2019-05-15T10:18:34.289Z,15.40
2019-05-15T10:30:49.647Z,15.20
2019-05-15T10:33:58.103Z,15.40
2019-05-15T10:37:00.578Z,15.70
2019-05-15T10:40:05.555Z,15.80
2019-05-15T10:43:10.577Z,16.20
2019-05-15T10:46:13.854Z,15.90
2019-05-15T10:49:18.825Z,16.00
2019-05-15T10:52:22.889Z,16.60
2019-05-15T10:55:28.933Z,16.90
2019-05-15T10:58:33.830Z,16.90
2019-05-15T11:01:41.861Z,17.60
2019-05-15T11:04:48.592Z,17.60
2019-05-15T11:07:53.971Z,17.80
2019-05-15T11:10:59.516Z,18.30
2019-05-15T11:14:14.721Z,18.40
2019-05-15T11:17:20.601Z,19.00
2019-05-15T11:20:24.645Z,20.00
2019-05-15T11:23:29.319Z,19.50
2019-05-15T11:26:33.861Z,19.60
2019-05-15T11:29:38.239Z,18.70
2019-05-15T11:32:42.326Z,18.00
2019-05-15T11:36:00.154Z,17.60
2019-05-15T11:38:55.449Z,17.50
2019-05-15T11:42:00.055Z,17.60
2019-05-15T11:45:03.141Z,17.60
2019-05-15T11:48:09.119Z,17.70
2019-05-15T11:51:12.909Z,18.30
2019-05-15T11:54:15.801Z,18.60
2019-05-15T11:57:20.573Z,18.80
2019-05-15T12:00:27.056Z,20.10
2019-05-15T12:03:31.260Z,20.70
2019-05-15T12:06:38.524Z,21.00
2019-05-15T12:09:43.402Z,20.50
2019-05-15T12:12:49.670Z,18.70
2019-05-15T12:15:55.873Z,19.10
2019-05-15T12:22:08.276Z,19.30
2019-05-15T12:25:13.175Z,19.10
2019-05-15T12:28:18.245Z,19.00
2019-05-15T12:31:24.763Z,18.40
2019-05-15T12:34:29.070Z,18.80
2019-05-15T12:37:33.718Z,18.90
2019-05-15T13:02:21.643Z,18.30
2019-05-15T13:14:38.735Z,17.40
2019-05-15T13:17:40.949Z,16.90
2019-05-15T13:20:45.702Z,16.50
2019-05-15T13:23:48.749Z,16.60
2019-05-15T13:26:52.793Z,16.60
2019-05-15T13:29:58.073Z,16.50
2019-05-15T13:33:04.544Z,16.60
2019-05-15T13:36:09.645Z,16.80
2019-05-15T13:39:18.229Z,17.10
2019-05-15T13:42:22.077Z,17.20
2019-05-15T13:45:28.964Z,17.50
2019-05-15T13:48:51.247Z,17.40
2019-05-15T13:51:55.002Z,17.10
2019-05-15T13:54:57.898Z,16.90
2019-05-15T13:58:02.446Z,16.60
2019-05-15T14:01:09.428Z,16.70
2019-05-15T14:04:12.650Z,16.60
2019-05-15T14:07:19.260Z,16.80
2019-05-15T14:10:23.716Z,16.80
2019-05-15T14:13:28.688Z,16.50
2019-05-15T14:16:34.401Z,16.10
2019-05-15T14:19:38.683Z,15.80
2019-05-15T14:22:43.252Z,15.90
2019-05-15T14:25:48.164Z,15.80
2019-05-15T14:28:52.729Z,15.60
2019-05-15T14:31:58.491Z,15.40
2019-05-15T14:35:01.348Z,15.20
2019-05-15T14:38:09.348Z,14.90
2019-05-15T14:41:14.175Z,14.70
2019-05-15T14:44:21.559Z,14.50
2019-05-15T14:47:26.367Z,14.60
2019-05-15T14:50:29.906Z,14.20
2019-05-15T14:53:35.548Z,14.40
2019-05-15T14:56:38.521Z,14.50
2019-05-15T14:59:43.013Z,14.60
2019-05-15T15:02:49.436Z,14.30
2019-05-15T15:05:53.610Z,14.10
2019-05-15T15:08:59.102Z,14.10
2019-05-15T15:12:02.689Z,14.20
2019-05-15T15:15:10.712Z,13.90
2019-05-15T15:18:15.050Z,13.70
2019-05-15T15:21:22.893Z,13.40
2019-05-15T15:24:26.449Z,13.30
2019-05-15T15:27:31.797Z,13.20
2019-05-15T15:30:38.520Z,13.20
2019-05-15T15:33:42.485Z,13.10
2019-05-15T15:36:45.289Z,13.00
2019-05-15T15:39:48.282Z,13.00
2019-05-15T15:42:51.373Z,12.90
2019-05-15T15:45:58.070Z,12.80
2019-05-15T15:49:02.745Z,12.60
2019-05-15T15:52:08.787Z,12.60
2019-05-15T15:55:13.813Z,12.60
2019-05-15T15:58:20.009Z,12.50
2019-05-15T16:01:27.676Z,12.30
2019-05-15T16:04:30.709Z,12.20
2019-05-15T16:07:37.803Z,12.20
2019-05-15T16:10:40.489Z,12.10
2019-05-15T16:13:46.227Z,12.00
2019-05-15T16:16:48.618Z,11.90
2019-05-15T16:19:51.480Z,11.80
2019-05-15T16:22:54.505Z,11.80
2019-05-15T16:26:00.987Z,11.70
2019-05-15T16:29:04.053Z,11.70
2019-05-15T16:32:08.731Z,11.70
2019-05-15T16:35:11.675Z,11.70
2019-05-15T16:38:14.433Z,11.40
2019-05-15T16:41:18.654Z,11.30
2019-05-15T16:44:21.563Z,11.20
2019-05-15T16:47:25.316Z,11.10
2019-05-15T16:50:28.745Z,11.00
2019-05-15T16:53:32.748Z,10.90
2019-05-15T16:56:36.545Z,11.00
2019-05-15T16:59:40.128Z,10.90
2019-05-15T17:02:44.964Z,10.80
2019-05-15T17:05:48.045Z,10.80
2019-05-15T17:08:50.977Z,10.80
2019-05-15T17:11:53.836Z,10.90
2019-05-15T17:14:58.435Z,10.90
2019-05-15T17:18:03.076Z,10.80
2019-05-15T17:21:09.538Z,10.70
2019-05-15T17:24:10.556Z,10.80
2019-05-15T17:27:14.437Z,10.80
2019-05-15T17:30:18.354Z,10.70
2019-05-15T17:33:22.737Z,10.60
2019-05-15T17:36:31.886Z,10.60
2019-05-15T17:39:37.710Z,10.60
2019-05-15T17:42:38.850Z,10.60
2019-05-15T17:45:41.959Z,10.60
2019-05-15T17:48:55.872Z,10.60
2019-05-15T17:51:55.386Z,10.40
2019-05-15T17:54:59.422Z,10.40
2019-05-15T17:58:03.765Z,10.20
2019-05-15T18:01:08.781Z,10.10
2019-05-15T18:04:13.419Z,10.10
2019-05-15T18:07:16.572Z,10.20
2019-05-15T18:10:20.393Z,10.10
2019-05-15T18:13:23.229Z,10.10
2019-05-15T18:16:28.173Z,10.10
2019-05-15T18:19:34.924Z,10.10
2019-05-15T18:22:38.238Z,10.10
2019-05-15T18:25:42.564Z,10.00
2019-05-15T18:28:45.941Z,10.00
2019-05-15T18:31:50.109Z,10.00
2019-05-15T18:34:53.908Z,9.90
2019-05-15T18:37:59.270Z,9.80
2019-05-15T18:41:03.897Z,9.80
2019-05-15T18:44:07.717Z,9.90
2019-05-15T18:47:11.657Z,9.90
2019-05-15T18:50:16.500Z,9.80
2019-05-15T18:53:19.442Z,9.90
2019-05-15T18:56:22.281Z,9.90
2019-05-15T18:59:27.023Z,9.80
2019-05-15T19:02:31.184Z,9.80
2019-05-15T19:05:35.917Z,9.70
2019-05-15T19:08:40.605Z,9.70
2019-05-15T19:11:43.438Z,9.60
2019-05-15T19:14:49.478Z,9.70
2019-05-15T19:17:52.649Z,9.70
2019-05-15T19:20:58.610Z,9.70
2019-05-15T19:24:02.854Z,9.70
2019-05-15T19:27:07.873Z,9.60
2019-05-15T19:30:12.256Z,9.60
2019-05-15T19:33:26.476Z,9.70
2019-05-15T19:36:21.866Z,9.70
2019-05-15T19:39:27.974Z,9.70
2019-05-15T19:42:32.204Z,9.70
2019-05-15T19:45:36.145Z,9.70
2019-05-15T19:48:41.000Z,9.70
2019-05-15T19:51:43.940Z,9.70
2019-05-15T19:54:48.638Z,9.70
2019-05-15T19:57:53.078Z,9.70
2019-05-15T20:00:56.018Z,9.70
2019-05-15T20:03:58.943Z,9.70
2019-05-15T20:07:01.880Z,9.70
2019-05-15T20:10:05.871Z,9.60
2019-05-15T20:13:11.772Z,9.70
2019-05-15T20:16:14.749Z,9.70
2019-05-15T20:19:18.751Z,9.70
2019-05-15T20:22:22.792Z,9.60
2019-05-15T20:25:28.042Z,9.60
2019-05-15T20:28:32.469Z,9.70
2019-05-15T20:31:38.399Z,9.70
2019-05-15T20:34:41.064Z,9.60
2019-05-15T20:37:45.312Z,9.60
2019-05-15T20:40:48.768Z,9.60
2019-05-15T20:43:52.916Z,9.60
2019-05-15T20:46:55.825Z,9.60
2019-05-15T20:49:58.973Z,9.60
2019-05-15T20:53:06.441Z,9.50
2019-05-15T20:56:09.365Z,9.50
2019-05-15T20:59:12.292Z,9.50
2019-05-15T21:02:18.591Z,9.30
2019-05-15T21:05:23.417Z,9.20
2019-05-15T21:08:28.852Z,9.20
2019-05-15T21:11:31.964Z,9.10
2019-05-15T21:14:40.024Z,9.10
2019-05-15T21:17:54.404Z,9.10
2019-05-15T21:20:50.085Z,9.10
2019-05-15T21:23:54.648Z,9.10
2019-05-15T21:26:58.124Z,9.20
2019-05-15T21:30:01.068Z,9.10
2019-05-15T21:33:05.213Z,9.10
2019-05-15T21:36:09.081Z,8.90
2019-05-15T21:39:15.946Z,8.80
2019-05-15T21:42:18.744Z,8.70
2019-05-15T21:45:21.628Z,8.60
2019-05-15T21:48:24.476Z,8.60
2019-05-15T21:51:29.383Z,8.60
2019-05-15T21:54:34.031Z,8.60
2019-05-15T21:57:40.007Z,8.60
2019-05-15T22:00:45.345Z,8.70
2019-05-15T22:03:51.444Z,8.60
2019-05-15T22:06:54.441Z,8.60
2019-05-15T22:09:57.257Z,8.60
2019-05-15T22:13:00.426Z,8.60
2019-05-15T22:16:05.193Z,8.60
2019-05-15T22:19:10.636Z,8.60
2019-05-15T22:22:13.697Z,8.60
2019-05-15T22:25:19.023Z,8.40
2019-05-15T22:28:22.032Z,8.30
2019-05-15T22:31:27.697Z,8.10
2019-05-15T22:34:33.326Z,8.00
2019-05-15T22:37:38.789Z,7.90
2019-05-15T22:40:42.896Z,7.80
2019-05-15T22:43:45.842Z,7.80
2019-05-15T22:46:49.725Z,7.70
2019-05-15T22:49:53.456Z,7.70
2019-05-15T22:52:58.800Z,7.70
2019-05-15T22:56:02.309Z,7.80
2019-05-15T22:59:08.405Z,7.70
2019-05-15T23:02:13.629Z,7.80
2019-05-15T23:05:25.059Z,7.80
2019-05-15T23:08:21.455Z,7.80
2019-05-15T23:11:24.729Z,7.80
2019-05-15T23:14:28.863Z,7.80
2019-05-15T23:17:32.684Z,7.80
2019-05-15T23:20:38.805Z,7.70
2019-05-15T23:23:43.493Z,7.80
2019-05-15T23:26:47.984Z,7.70
2019-05-15T23:29:53.020Z,7.70
2019-05-15T23:32:58.035Z,7.80
2019-05-15T23:36:02.372Z,7.80
2019-05-15T23:39:08.815Z,7.80
2019-05-15T23:42:13.380Z,7.80
2019-05-15T23:45:18.237Z,7.80
2019-05-15T23:48:24.392Z,7.80
2019-05-15T23:51:27.908Z,7.70
2019-05-15T23:54:30.886Z,7.70
2019-05-15T23:57:35.462Z,7.70
